sensor_id;sensor_type;location;lat;lon;timestamp;temperature;humidity
32107;DHT22;18622;51.998;10.440;2022-12-28T03:17:45;7.00;99.50
32107;DHT22;18622;51.998;10.440;2022-12-28T03:20:31;7.10;99.40
32107;DHT22;18622;51.998;10.440;2022-12-28T03:23:18;7.20;99.10
32107;DHT22;18622;51.998;10.440;2022-12-28T03:26:07;7.20;99.10
32107;DHT22;18622;51.998;10.440;2022-12-28T03:28:54;7.20;99.00
32107;DHT22;18622;51.998;10.440;2022-12-28T03:31:41;7.30;99.00
32107;DHT22;18622;51.998;10.440;2022-12-28T03:34:09;7.30;99.00
32107;DHT22;18622;51.998;10.440;2022-12-28T03:36:57;7.40;99.00
32107;DHT22;18622;51.998;10.440;2022-12-28T03:39:37;7.40;99.00
32107;DHT22;18622;51.998;10.440;2022-12-28T03:42:11;7.40;99.00
32107;DHT22;18622;51.998;10.440;2022-12-28T03:47:44;7.50;98.80
32107;DHT22;18622;51.998;10.440;2022-12-28T03:50:13;7.50;98.80
32107;DHT22;18622;51.998;10.440;2022-12-28T03:52:41;7.50;99.00
32107;DHT22;18622;51.998;10.440;2022-12-28T03:55:12;7.40;99.50
32107;DHT22;18622;51.998;10.440;2022-12-28T03:57:39;7.30;99.80
32107;DHT22;18622;51.998;10.440;2022-12-28T04:31:24;7.60;99.90
32107;DHT22;18622;51.998;10.440;2022-12-28T04:33:52;7.60;99.90
32107;DHT22;18622;51.998;10.440;2022-12-28T04:36:20;7.60;99.90
32107;DHT22;18622;51.998;10.440;2022-12-28T04:38:47;7.60;99.90
32107;DHT22;18622;51.998;10.440;2022-12-28T04:41:15;7.60;99.90
32107;DHT22;18622;51.998;10.440;2022-12-28T04:43:43;7.60;99.90
32107;DHT22;18622;51.998;10.440;2022-12-28T04:46:13;7.50;99.90
32107;DHT22;18622;51.998;10.440;2022-12-28T04:48:41;7.50;99.90
32107;DHT22;18622;51.998;10.440;2022-12-28T04:51:15;7.40;99.90
32107;DHT22;18622;51.998;10.440;2022-12-28T04:53:40;7.40;99.90
32107;DHT22;18622;51.998;10.440;2022-12-28T04:56:09;7.30;99.90
32107;DHT22;18622;51.998;10.440;2022-12-28T04:58:37;7.30;99.90
32107;DHT22;18622;51.998;10.440;2022-12-28T05:01:08;7.30;99.90
32107;DHT22;18622;51.998;10.440;2022-12-28T05:03:38;7.40;99.90
32107;DHT22;18622;51.998;10.440;2022-12-28T05:06:09;7.40;99.90
32107;DHT22;18622;51.998;10.440;2022-12-28T05:08:37;7.50;99.90
32107;DHT22;18622;51.998;10.440;2022-12-28T05:11:06;7.50;99.90
32107;DHT22;18622;51.998;10.440;2022-12-28T05:13:34;7.60;99.90
32107;DHT22;18622;51.998;10.440;2022-12-28T05:16:04;7.70;99.90
32107;DHT22;18622;51.998;10.440;2022-12-28T05:18:33;7.70;99.90
32107;DHT22;18622;51.998;10.440;2022-12-28T05:21:03;7.70;99.90
32107;DHT22;18622;51.998;10.440;2022-12-28T05:23:30;7.80;99.90
32107;DHT22;18622;51.998;10.440;2022-12-28T05:25:58;7.80;99.90
32107;DHT22;18622;51.998;10.440;2022-12-28T05:28:26;7.90;99.90
32107;DHT22;18622;51.998;10.440;2022-12-28T05:30:59;8.00;99.90
32107;DHT22;18622;51.998;10.440;2022-12-28T05:33:31;8.00;99.90
32107;DHT22;18622;51.998;10.440;2022-12-28T05:36:09;8.10;99.90
32107;DHT22;18622;51.998;10.440;2022-12-28T05:38:33;8.10;99.90
32107;DHT22;18622;51.998;10.440;2022-12-28T05:41:13;8.10;99.90
32107;DHT22;18622;51.998;10.440;2022-12-28T05:43:42;8.20;99.90
32107;DHT22;18622;51.998;10.440;2022-12-28T05:46:12;8.30;99.90
32107;DHT22;18622;51.998;10.440;2022-12-28T05:48:41;8.30;99.90
32107;DHT22;18622;51.998;10.440;2022-12-28T05:51:11;8.30;99.90
32107;DHT22;18622;51.998;10.440;2022-12-28T05:53:39;8.30;99.90
32107;DHT22;18622;51.998;10.440;2022-12-28T05:56:13;8.40;99.90
32107;DHT22;18622;51.998;10.440;2022-12-28T05:58:42;8.40;99.90
32107;DHT22;18622;51.998;10.440;2022-12-28T06:01:12;8.40;99.70
32107;DHT22;18622;51.998;10.440;2022-12-28T06:03:40;8.50;99.70
32107;DHT22;18622;51.998;10.440;2022-12-28T06:06:13;8.50;99.80
32107;DHT22;18622;51.998;10.440;2022-12-28T06:08:42;8.50;99.80
32107;DHT22;18622;51.998;10.440;2022-12-28T06:11:13;8.50;99.80
32107;DHT22;18622;51.998;10.440;2022-12-28T06:13:40;8.50;99.90
32107;DHT22;18622;51.998;10.440;2022-12-28T06:16:20;8.50;99.90
32107;DHT22;18622;51.998;10.440;2022-12-28T06:18:40;8.60;99.60
32107;DHT22;18622;51.998;10.440;2022-12-28T06:21:11;8.70;99.50
32107;DHT22;18622;51.998;10.440;2022-12-28T06:23:39;8.80;99.50
32107;DHT22;18622;51.998;10.440;2022-12-28T06:26:09;8.80;99.40
32107;DHT22;18622;51.998;10.440;2022-12-28T06:28:37;8.80;99.30
32107;DHT22;18622;51.998;10.440;2022-12-28T10:05:02;10.70;99.20
32107;DHT22;18622;51.998;10.440;2022-12-28T10:07:31;10.70;99.20
32107;DHT22;18622;51.998;10.440;2022-12-28T10:09:58;10.60;99.30
32107;DHT22;18622;51.998;10.440;2022-12-28T10:12:28;10.70;99.30
32107;DHT22;18622;51.998;10.440;2022-12-28T10:14:58;10.90;99.40
32107;DHT22;18622;51.998;10.440;2022-12-28T10:17:27;11.30;99.30
32107;DHT22;18622;51.998;10.440;2022-12-28T10:19:58;11.80;98.10
32107;DHT22;18622;51.998;10.440;2022-12-28T10:22:30;12.40;97.20
32107;DHT22;18622;51.998;10.440;2022-12-28T10:24:57;13.00;96.00
32107;DHT22;18622;51.998;10.440;2022-12-28T10:27:29;13.40;95.00
32107;DHT22;18622;51.998;10.440;2022-12-28T10:29:55;13.80;94.80
32107;DHT22;18622;51.998;10.440;2022-12-28T10:32:24;14.20;93.30
32107;DHT22;18622;51.998;10.440;2022-12-28T10:35:00;14.50;92.50
32107;DHT22;18622;51.998;10.440;2022-12-28T10:37:26;14.70;91.60
32107;DHT22;18622;51.998;10.440;2022-12-28T10:40:07;15.00;90.90
32107;DHT22;18622;51.998;10.440;2022-12-28T10:42:32;15.20;91.00
32107;DHT22;18622;51.998;10.440;2022-12-28T10:45:03;15.70;89.60
32107;DHT22;18622;51.998;10.440;2022-12-28T10:47:40;16.00;88.90
32107;DHT22;18622;51.998;10.440;2022-12-28T10:50:06;16.40;85.30
32107;DHT22;18622;51.998;10.440;2022-12-28T10:52:33;16.70;83.90
32107;DHT22;18622;51.998;10.440;2022-12-28T10:55:01;16.80;83.30
32107;DHT22;18622;51.998;10.440;2022-12-28T10:57:30;17.00;81.80
32107;DHT22;18622;51.998;10.440;2022-12-28T11:02:44;17.70;78.00
32107;DHT22;18622;51.998;10.440;2022-12-28T11:05:20;17.60;76.10
32107;DHT22;18622;51.998;10.440;2022-12-28T11:07:49;17.50;77.90
32107;DHT22;18622;51.998;10.440;2022-12-28T11:10:25;17.70;76.00
32107;DHT22;18622;51.998;10.440;2022-12-28T11:12:55;17.60;74.90
32107;DHT22;18622;51.998;10.440;2022-12-28T11:15:30;17.00;75.30
32107;DHT22;18622;51.998;10.440;2022-12-28T11:17:57;16.60;76.40
32107;DHT22;18622;51.998;10.440;2022-12-28T11:20:37;16.30;77.70
32107;DHT22;18622;51.998;10.440;2022-12-28T11:23:06;16.30;77.80
32107;DHT22;18622;51.998;10.440;2022-12-28T11:25:35;16.50;78.50
32107;DHT22;18622;51.998;10.440;2022-12-28T11:28:13;16.70;76.90
32107;DHT22;18622;51.998;10.440;2022-12-28T11:30:37;16.70;75.70
32107;DHT22;18622;51.998;10.440;2022-12-28T11:33:05;16.50;76.90
32107;DHT22;18622;51.998;10.440;2022-12-28T11:35:37;16.60;76.60
32107;DHT22;18622;51.998;10.440;2022-12-28T11:38:09;16.80;75.30
32107;DHT22;18622;51.998;10.440;2022-12-28T11:40:47;16.90;74.40
32107;DHT22;18622;51.998;10.440;2022-12-28T11:46:02;16.40;74.40
32107;DHT22;18622;51.998;10.440;2022-12-28T11:48:45;16.20;76.50
32107;DHT22;18622;51.998;10.440;2022-12-28T11:51:28;16.70;75.80
32107;DHT22;18622;51.998;10.440;2022-12-28T11:54:01;17.30;74.20
32107;DHT22;18622;51.998;10.440;2022-12-28T16:04:23;10.80;94.60
32107;DHT22;18622;51.998;10.440;2022-12-28T16:06:51;10.80;94.50
32107;DHT22;18622;51.998;10.440;2022-12-28T16:09:18;10.80;94.40
32107;DHT22;18622;51.998;10.440;2022-12-28T16:11:46;10.80;94.40
32107;DHT22;18622;51.998;10.440;2022-12-28T16:14:15;10.80;94.30
32107;DHT22;18622;51.998;10.440;2022-12-28T16:16:43;10.90;94.40
32107;DHT22;18622;51.998;10.440;2022-12-28T16:19:13;10.90;94.40
32107;DHT22;18622;51.998;10.440;2022-12-28T16:21:41;10.80;94.60
32107;DHT22;18622;51.998;10.440;2022-12-28T16:24:09;10.80;94.90
32107;DHT22;18622;51.998;10.440;2022-12-28T16:26:37;10.60;95.30
32107;DHT22;18622;51.998;10.440;2022-12-28T16:29:05;10.50;95.80
32107;DHT22;18622;51.998;10.440;2022-12-28T16:31:35;10.40;96.10
32107;DHT22;18622;51.998;10.440;2022-12-28T16:34:11;10.30;96.40
32107;DHT22;18622;51.998;10.440;2022-12-28T16:36:40;10.30;96.70
32107;DHT22;18622;51.998;10.440;2022-12-28T16:39:11;10.20;96.80
32107;DHT22;18622;51.998;10.440;2022-12-28T16:41:38;10.20;97.00
32107;DHT22;18622;51.998;10.440;2022-12-28T16:44:17;10.30;97.00
32107;DHT22;18622;51.998;10.440;2022-12-28T16:46:41;10.30;97.00
32107;DHT22;18622;51.998;10.440;2022-12-28T16:49:09;10.40;96.90
32107;DHT22;18622;51.998;10.440;2022-12-28T16:51:39;10.40;96.80
32107;DHT22;18622;51.998;10.440;2022-12-28T16:54:07;10.40;96.70
32107;DHT22;18622;51.998;10.440;2022-12-28T16:56:37;10.50;96.60
32107;DHT22;18622;51.998;10.440;2022-12-28T16:59:04;10.50;96.40
32107;DHT22;18622;51.998;10.440;2022-12-28T17:01:32;10.50;96.30
32107;DHT22;18622;51.998;10.440;2022-12-28T17:04:00;10.50;96.20
32107;DHT22;18622;51.998;10.440;2022-12-28T17:06:28;10.50;96.10
32107;DHT22;18622;51.998;10.440;2022-12-28T17:08:55;10.50;95.80
32107;DHT22;18622;51.998;10.440;2022-12-28T17:11:23;10.60;95.80
32107;DHT22;18622;51.998;10.440;2022-12-28T17:13:51;10.60;95.90
32107;DHT22;18622;51.998;10.440;2022-12-28T17:16:19;10.60;95.80
32107;DHT22;18622;51.998;10.440;2022-12-28T17:18:47;10.60;95.60
32107;DHT22;18622;51.998;10.440;2022-12-28T17:21:14;10.60;95.40
32107;DHT22;18622;51.998;10.440;2022-12-28T17:23:42;10.60;95.10
32107;DHT22;18622;51.998;10.440;2022-12-28T17:26:10;10.70;95.20
32107;DHT22;18622;51.998;10.440;2022-12-28T17:28:38;10.70;95.10
32107;DHT22;18622;51.998;10.440;2022-12-28T17:31:13;10.70;94.90
32107;DHT22;18622;51.998;10.440;2022-12-28T17:33:37;10.70;94.70
32107;DHT22;18622;51.998;10.440;2022-12-28T17:36:04;10.70;94.70
32107;DHT22;18622;51.998;10.440;2022-12-28T17:38:32;10.80;94.20
32107;DHT22;18622;51.998;10.440;2022-12-28T17:41:12;10.80;94.10
32107;DHT22;18622;51.998;10.440;2022-12-28T17:43:48;10.80;94.30
32107;DHT22;18622;51.998;10.440;2022-12-28T17:46:14;10.80;94.20
32107;DHT22;18622;51.998;10.440;2022-12-28T17:48:42;10.80;94.30
32107;DHT22;18622;51.998;10.440;2022-12-28T17:51:09;10.80;94.30
32107;DHT22;18622;51.998;10.440;2022-12-28T17:53:38;10.80;94.10
32107;DHT22;18622;51.998;10.440;2022-12-28T17:56:07;10.80;94.30
32107;DHT22;18622;51.998;10.440;2022-12-28T17:58:35;10.80;94.20
32107;DHT22;18622;51.998;10.440;2022-12-28T18:01:04;10.80;94.10
32107;DHT22;18622;51.998;10.440;2022-12-28T18:03:32;10.70;94.10
32107;DHT22;18622;51.998;10.440;2022-12-28T18:06:00;10.70;94.20
32107;DHT22;18622;51.998;10.440;2022-12-28T18:08:27;10.70;94.30
32107;DHT22;18622;51.998;10.440;2022-12-28T18:10:55;10.70;94.30
32107;DHT22;18622;51.998;10.440;2022-12-28T18:13:24;10.60;94.50
32107;DHT22;18622;51.998;10.440;2022-12-28T18:15:52;10.60;94.60
32107;DHT22;18622;51.998;10.440;2022-12-28T18:18:20;10.60;94.70
32107;DHT22;18622;51.998;10.440;2022-12-28T18:23:16;10.60;94.90
32107;DHT22;18622;51.998;10.440;2022-12-28T18:25:44;10.60;94.90
32107;DHT22;18622;51.998;10.440;2022-12-28T18:28:12;10.60;94.80
32107;DHT22;18622;51.998;10.440;2022-12-28T18:30:40;10.60;94.90
32107;DHT22;18622;51.998;10.440;2022-12-28T18:33:08;10.60;95.00
32107;DHT22;18622;51.998;10.440;2022-12-28T18:35:36;10.60;95.00
32107;DHT22;18622;51.998;10.440;2022-12-28T18:38:03;10.70;95.10
32107;DHT22;18622;51.998;10.440;2022-12-28T18:40:33;10.70;95.10
32107;DHT22;18622;51.998;10.440;2022-12-28T18:43:01;10.60;95.10
32107;DHT22;18622;51.998;10.440;2022-12-28T18:45:29;10.60;95.20
32107;DHT22;18622;51.998;10.440;2022-12-28T18:47:56;10.60;95.20
32107;DHT22;18622;51.998;10.440;2022-12-28T18:50:24;10.60;95.40
32107;DHT22;18622;51.998;10.440;2022-12-28T18:52:52;10.60;95.50
32107;DHT22;18622;51.998;10.440;2022-12-28T18:55:20;10.60;95.50
32107;DHT22;18622;51.998;10.440;2022-12-28T18:57:48;10.60;95.40
32107;DHT22;18622;51.998;10.440;2022-12-28T19:00:15;10.60;95.50
32107;DHT22;18622;51.998;10.440;2022-12-28T19:02:43;10.60;95.60
32107;DHT22;18622;51.998;10.440;2022-12-28T19:05:11;10.50;95.60
32107;DHT22;18622;51.998;10.440;2022-12-28T19:07:39;10.50;95.70
32107;DHT22;18622;51.998;10.440;2022-12-28T19:10:07;10.50;95.70
32107;DHT22;18622;51.998;10.440;2022-12-28T19:12:38;10.50;95.80
32107;DHT22;18622;51.998;10.440;2022-12-28T19:15:06;10.40;95.80
32107;DHT22;18622;51.998;10.440;2022-12-28T19:17:34;10.40;95.80
32107;DHT22;18622;51.998;10.440;2022-12-28T19:20:02;10.40;95.90
32107;DHT22;18622;51.998;10.440;2022-12-28T19:22:30;10.40;95.90
32107;DHT22;18622;51.998;10.440;2022-12-28T19:24:58;10.30;96.10
32107;DHT22;18622;51.998;10.440;2022-12-28T19:27:26;10.30;96.10
32107;DHT22;18622;51.998;10.440;2022-12-28T19:29:53;10.40;96.10
32107;DHT22;18622;51.998;10.440;2022-12-28T19:32:21;10.40;96.10
32107;DHT22;18622;51.998;10.440;2022-12-28T19:34:49;10.40;96.20
32107;DHT22;18622;51.998;10.440;2022-12-28T19:37:17;10.40;96.10
32107;DHT22;18622;51.998;10.440;2022-12-28T19:39:45;10.40;96.00
32107;DHT22;18622;51.998;10.440;2022-12-28T19:42:12;10.50;95.80
32107;DHT22;18622;51.998;10.440;2022-12-28T19:44:40;10.50;95.80
32107;DHT22;18622;51.998;10.440;2022-12-28T19:47:08;10.60;95.70
32107;DHT22;18622;51.998;10.440;2022-12-28T19:49:36;10.60;95.80
32107;DHT22;18622;51.998;10.440;2022-12-28T19:52:04;10.60;95.60
32107;DHT22;18622;51.998;10.440;2022-12-28T19:54:32;10.70;95.60
32107;DHT22;18622;51.998;10.440;2022-12-28T19:56:59;10.70;95.60
32107;DHT22;18622;51.998;10.440;2022-12-28T19:59:27;10.70;95.70
32107;DHT22;18622;51.998;10.440;2022-12-28T20:01:55;10.80;95.50
32107;DHT22;18622;51.998;10.440;2022-12-28T20:04:23;10.80;95.30
32107;DHT22;18622;51.998;10.440;2022-12-28T20:06:50;10.90;95.20
32107;DHT22;18622;51.998;10.440;2022-12-28T20:09:18;10.90;95.10
32107;DHT22;18622;51.998;10.440;2022-12-28T20:11:47;10.90;95.40
32107;DHT22;18622;51.998;10.440;2022-12-28T20:14:15;10.80;95.80
32107;DHT22;18622;51.998;10.440;2022-12-28T20:16:43;10.50;96.40
32107;DHT22;18622;51.998;10.440;2022-12-28T20:19:11;10.40;97.00
32107;DHT22;18622;51.998;10.440;2022-12-28T20:21:39;10.30;97.40
32107;DHT22;18622;51.998;10.440;2022-12-28T20:24:09;10.20;97.80
32107;DHT22;18622;51.998;10.440;2022-12-28T20:26:37;10.20;97.90
32107;DHT22;18622;51.998;10.440;2022-12-28T20:29:05;10.30;97.90
32107;DHT22;18622;51.998;10.440;2022-12-28T20:31:33;10.40;97.70
32107;DHT22;18622;51.998;10.440;2022-12-28T20:34:00;10.50;97.30
32107;DHT22;18622;51.998;10.440;2022-12-28T20:36:29;10.50;97.20
32107;DHT22;18622;51.998;10.440;2022-12-28T20:38:58;10.60;97.10
32107;DHT22;18622;51.998;10.440;2022-12-28T20:41:28;10.70;96.90
32107;DHT22;18622;51.998;10.440;2022-12-28T20:44:16;10.70;97.00
32107;DHT22;18622;51.998;10.440;2022-12-28T20:46:44;10.70;96.90
32107;DHT22;18622;51.998;10.440;2022-12-28T20:49:12;10.70;96.90
32107;DHT22;18622;51.998;10.440;2022-12-28T20:51:40;10.70;96.80
32107;DHT22;18622;51.998;10.440;2022-12-28T20:54:10;10.70;96.90
32107;DHT22;18622;51.998;10.440;2022-12-28T20:56:38;10.70;96.90
32107;DHT22;18622;51.998;10.440;2022-12-28T20:59:08;10.70;96.80
32107;DHT22;18622;51.998;10.440;2022-12-28T21:01:37;10.70;96.70
32107;DHT22;18622;51.998;10.440;2022-12-28T21:04:05;10.70;96.60
32107;DHT22;18622;51.998;10.440;2022-12-28T21:06:33;10.80;96.50
32107;DHT22;18622;51.998;10.440;2022-12-28T21:09:02;10.80;96.30
32107;DHT22;18622;51.998;10.440;2022-12-28T21:11:30;10.80;96.20
32107;DHT22;18622;51.998;10.440;2022-12-28T21:13:59;10.80;96.10
32107;DHT22;18622;51.998;10.440;2022-12-28T21:16:26;10.90;96.20
32107;DHT22;18622;51.998;10.440;2022-12-28T21:18:54;10.90;96.00
32107;DHT22;18622;51.998;10.440;2022-12-28T21:21:22;11.00;95.90
32107;DHT22;18622;51.998;10.440;2022-12-28T21:23:50;11.00;95.90
32107;DHT22;18622;51.998;10.440;2022-12-28T21:26:21;11.00;95.70
32107;DHT22;18622;51.998;10.440;2022-12-28T21:28:49;11.10;95.50
32107;DHT22;18622;51.998;10.440;2022-12-28T21:31:17;11.10;95.50
32107;DHT22;18622;51.998;10.440;2022-12-28T21:33:45;11.10;95.40
32107;DHT22;18622;51.998;10.440;2022-12-28T21:36:14;11.20;95.50
32107;DHT22;18622;51.998;10.440;2022-12-28T21:38:44;11.20;95.40
32107;DHT22;18622;51.998;10.440;2022-12-28T21:41:17;11.20;95.50
32107;DHT22;18622;51.998;10.440;2022-12-28T21:44:04;11.20;95.50
32107;DHT22;18622;51.998;10.440;2022-12-28T21:46:32;11.20;95.50
32107;DHT22;18622;51.998;10.440;2022-12-28T21:49:00;11.30;95.40
32107;DHT22;18622;51.998;10.440;2022-12-28T21:51:31;11.30;95.40
32107;DHT22;18622;51.998;10.440;2022-12-28T21:54:04;11.30;95.20
32107;DHT22;18622;51.998;10.440;2022-12-28T21:56:33;11.40;95.30
32107;DHT22;18622;51.998;10.440;2022-12-28T21:59:01;11.30;95.30
